• Join FlightAware (Why Join?)
  • Login
  • US Flag 
05:48AM EDT


 

Airport Tracker/Info


-or-


 

Live Flight TrackerFlight Track Log ✈ N311GM ✈ 13-Oct-2013 ✈ KSTF - MHLM / SAP

Flight Track Log - Related Links

Times and Time Zones

All times are in EDT time to prevent confusion due to time zone crossing. See the N311GM flight status page for this flight to view local times or setup timezone preferences in your user account.

Time Position Orientation Groundspeed Altitude Reporting Facility
EDT Latitude Longitude Course Direction KTS MPH feet Rate Location/Type
02:30PM 33.3539 -88.8775 270° West 258 297 3,700  Level Memphis Center
02:31PM 33.3103 -88.8931 197° South 206 237 6,000 2,160 Climbing Memphis Center
02:32PM 33.2644 -88.9039 191° South 175 201 8,100 1,920 Climbing Memphis Center
02:33PM 33.2147 -88.9147 190° South 175 201 9,900 1,800 Climbing Memphis Center
02:34PM 33.1689 -88.9328 198° South 175 201 11,800 1,680 Climbing Memphis Center
02:35PM 33.0093 -88.8231 270° West  Level Estimated
02:35PM 33.1147 -88.9508 196° South 188 216 13,300  Level Memphis Center
02:36PM 33.0608 -88.9642 192° South 194 223 14,900 1,500 Climbing Memphis Center
02:37PM 33.0086 -88.9822 196° South 194 223 16,300 1,260 Climbing Memphis Center
02:38PM 32.9547 -88.9981 194° South 199 229 17,500 1,080 Climbing Memphis Center
02:39PM 32.9025 -89.0136 194° South 204 235 18,500 1,080 Climbing Memphis Center
02:40PM 32.8444 -89.0319 195° South 204 235 19,700 1,140 Climbing Memphis Center
02:41PM 32.7861 -89.0475 193° South 204 235 20,800 960 Climbing Memphis Center
02:42PM 32.7278 -89.0658 195° South 204 235 21,700 900 Climbing Memphis Center
02:43PM 32.6675 -89.0864 196° South 215 247 22,600 840 Climbing Memphis Center
02:44PM 32.6050 -89.1019 192° South 226 260 23,400 720 Climbing Memphis Center
02:45PM 32.5425 -89.1203 194° South 226 260 24,100 660 Climbing Memphis Center
02:46PM 32.4781 -89.1408 195° South 236 272 24,800 720 Climbing Memphis Center
02:47PM 32.4114 -89.1614 195° South 241 277 25,600 840 Climbing Memphis Center
02:48PM 32.3531 -89.1794 195° South 236 272 26,500 780 Climbing Memphis Center
02:49PM 32.2928 -89.1972 194° South 231 266 27,200 600 Climbing Memphis Center
02:50PM 32.2325 -89.2153 194° South 226 260 27,800 660 Climbing Memphis Center
02:51PM 32.1719 -89.2333 194° South 226 260 28,600 540 Climbing Memphis Center
02:52PM 32.1117 -89.2511 194° South 226 260 28,900 420 Climbing Memphis Center
02:53PM 32.0492 -89.2692 194° South 221 254 29,500 540 Climbing Memphis Center
02:54PM 31.9847 -89.2894 195° South 233 268 30,000 480 Climbing Memphis Center
02:56PM 31.8758 -89.3233 195° South 240 276 30,800 480 Climbing Houston Center
02:57PM 31.8086 -89.3419 193° South 246 283 31,300 420 Climbing Houston Center
02:58PM 31.7422 -89.3625 195° South 248 285 31,700 300 Climbing Houston Center
02:59PM 31.6761 -89.3822 194° South 246 283 32,000 120 Climbing Houston Center
03:00PM 31.5911 -89.4072 194° South 261 300 32,000  Level Houston Center
03:01PM 31.5181 -89.4289 194° South 270 311 32,000  Level Houston Center
03:02PM 31.4419 -89.4508 194° South 279 321 32,000  Level Houston Center
03:03PM 31.3650 -89.4736 194° South 284 327 32,000  Level Houston Center
03:04PM 31.2867 -89.4967 194° South 289 333 32,000  Level Houston Center
03:05PM 31.2053 -89.5214 195° South 288 331 32,000  Level Houston Center
03:06PM 31.1272 -89.5444 194° South 288 331 32,000  Level Houston Center
03:07PM 31.0333 -89.5714 194° South 289 333 32,000  Level Houston Center
03:08PM 30.9553 -89.5933 194° South 290 334 32,000  Level Houston Center
03:10PM 30.8772 -89.6164 194° South 288 331 32,000  Level Houston Center
03:11PM 30.7994 -89.6392 194° South 288 331 32,000  Level Houston Center
03:12PM 30.7203 -89.6625 194° South 292 336 32,000  Level Houston Center
03:13PM 30.6256 -89.6894 194° South 292 336 32,000  Level Houston Center
03:14PM 30.5464 -89.7128 194° South 293 337 32,000  Level Houston Center
03:15PM 30.4675 -89.7358 194° South 293 337 32,000  Level Houston Center
03:16PM 30.3925 -89.7569 194° South 297 342 32,000  Level Houston Center
03:17PM 30.2939 -89.7847 194° South 304 350 32,000  Level Houston Center
03:18PM 30.2156 -89.8078 194° South 299 344 32,000  Level Houston Center
03:19PM 30.1361 -89.8303 194° South 295 339 32,000  Level Houston Center
03:20PM 30.0589 -89.8533 194° South 289 333 32,000  Level Houston Center
03:21PM 29.9794 -89.8753 193° South 292 336 32,000  Level Houston Center
03:22PM 29.8844 -89.9033 194° South 294 338 32,000  Level Houston Center
03:23PM 29.8061 -89.9256 194° South 290 334 32,000  Level Houston Center
03:24PM 29.7269 -89.9486 194° South 292 336 32,000  Level Houston Center
03:25PM 29.6489 -89.9711 194° South 291 335 32,000 300 Level Houston Center
03:26PM 29.5744 -89.9900 192° South 275 316 32,700 480 Climbing Houston Center
03:27PM 29.4897 -90.0144 194° South 263 303 33,100 420 Climbing Houston Center
03:28PM 29.4211 -90.0356 195° South 257 296 33,600 240 Climbing Houston Center
03:29PM 29.3556 -90.0536 193° South 247 284 33,700 180 Climbing Houston Center
03:30PM 29.2886 -90.0722 194° South 246 283 34,000 120 Climbing Houston Center
03:31PM 29.2203 -90.0919 194° South 250 288 34,000  Level Houston Center
03:32PM 29.1478 -90.1072 190° South 261 300 34,000 180 Level Houston Center
03:33PM 29.0556 -90.0969 174° South 275 316 34,400 240 Climbing Houston Center
03:34PM 28.9803 -90.0939 178° South 272 313 34,600 120 Climbing Houston Center
03:35PM 28.9050 -90.0900 177° South 271 312 34,700 120 Climbing Houston Center
03:36PM 28.8300 -90.0844 176° South 271 312 34,900 120 Climbing Houston Center
03:37PM 28.7542 -90.0811 178° South 271 312 35,000  Climbing Houston Center
03:38PM 28.6772 -90.0775 178° South 275 316 35,000  Level Houston Center
03:40PM 28.5831 -90.0711 177° South 281 323 35,000  Level Houston Center
03:41PM 28.5036 -90.0669 177° South 285 328 35,000  Level Houston Center
03:42PM 28.4236 -90.0625 177° South 287 330 35,000  Level Houston Center
03:43PM 28.3447 -90.0583 177° South 285 328 35,000  Level Houston Center
03:44PM 28.2650 -90.0561 179° South 285 328 35,000  Level Houston Center
03:45PM 28.1853 -90.0553 179° South 286 329 35,000  Level Houston Center
03:46PM 28.0892 -90.0489 177° South 287 330 35,000  Level Houston Center
03:47PM 28.0089 -90.0436 177° South 288 331 35,000  Level Houston Center
03:48PM 27.9275 -90.0372 176° South 290 334 35,000  Level Houston Center
03:49PM 27.8469 -90.0331 177° South 290 334 35,000  Level Houston Center
03:50PM 27.7669 -90.0292 178° South 289 333 35,000  Level Houston Center
03:51PM 27.6703 -90.0256 178° South 289 333 35,000  Level Houston Center
03:52PM 27.5903 -90.0208 177° South 288 331 35,000  Level Houston Center
03:53PM 27.5103 -90.0156 177° South 287 330 35,000  Level Houston Center
03:54PM 27.4306 -90.0089 176° South 287 330 35,000  Level Houston Center
03:55PM 27.3497 -90.0025 176° South 289 333 35,000  Level Houston Center
03:56PM 27.2703 -90.0019 180° South 288 331 35,000  Level Houston Center
03:57PM 27.1744 -90.0006 179° South 287 330 35,000  Level Houston Center
03:58PM 27.0944 -89.9936 176° South 287 330 35,000  Level Houston Center
03:59PM 27.0147 -89.9853 175° South 287 330 35,000  Level Houston Center
04:00PM 26.9347 -89.9769 175° South 287 330 35,000  Level Houston Center
04:02PM 26.8347 -89.9695 176° South  Level FlightAware Approximate
04:09PM 26.2891 -89.9298 177° South  Level FlightAware Approximate
04:10PM 26.2111 -89.9253 177° South  Level FlightAware Approximate
04:11PM 26.1332 -89.9208 177° South  Level FlightAware Approximate
04:12PM 26.0552 -89.9164 177° South  Level FlightAware Approximate
04:13PM 25.9772 -89.9119 177° South  Level FlightAware Approximate
04:14PM 25.8992 -89.9074 177° South  Level FlightAware Approximate
04:15PM 25.8212 -89.9029 177° South  Level FlightAware Approximate
04:16PM 25.7432 -89.8985 177° South  Level FlightAware Approximate
04:17PM 25.6652 -89.8940 177° South  Level FlightAware Approximate
04:18PM 25.5872 -89.8896 177° South  Level FlightAware Approximate
04:19PM 25.5092 -89.8851 177° South  Level FlightAware Approximate
04:20PM 25.4312 -89.8807 177° South  Level FlightAware Approximate
04:21PM 25.3533 -89.8763 177° South  Level FlightAware Approximate
04:22PM 25.2753 -89.8719 177° South  Level FlightAware Approximate
04:23PM 25.1973 -89.8675 177° South  Level FlightAware Approximate
04:24PM 25.1192 -89.8635 177° South  Level FlightAware Approximate
04:25PM 25.0412 -89.8597 177° South  Level FlightAware Approximate
04:26PM 24.9632 -89.8559 177° South  Level FlightAware Approximate
04:27PM 24.8852 -89.8521 177° South  Level FlightAware Approximate
04:28PM 24.8071 -89.8483 177° South  Level FlightAware Approximate
04:29PM 24.7291 -89.8445 177° South  Level FlightAware Approximate
04:30PM 24.6511 -89.8407 177° South  Level FlightAware Approximate
04:31PM 24.5731 -89.8369 177° South  Level FlightAware Approximate
04:32PM 24.4951 -89.8333 180° South  Level FlightAware Approximate
04:33PM 24.4170 -89.8303 178° South  Level FlightAware Approximate
04:34PM 24.3390 -89.8267 178° South  Level FlightAware Approximate
04:35PM 24.2610 -89.8232 178° South  Level FlightAware Approximate
04:36PM 24.1829 -89.8196 178° South  Level FlightAware Approximate
04:37PM 24.1049 -89.8161 178° South  Level FlightAware Approximate
04:38PM 24.0269 -89.8125 178° South  Level FlightAware Approximate
04:39PM 23.9488 -89.8090 178° South  Level FlightAware Approximate
04:40PM 23.8708 -89.8055 178° South  Level FlightAware Approximate
04:41PM 23.7928 -89.8019 178° South  Level FlightAware Approximate
04:42PM 23.7147 -89.7984 178° South  Level FlightAware Approximate
04:43PM 23.6367 -89.7948 178° South  Level FlightAware Approximate
04:44PM 23.5587 -89.7913 178° South  Level FlightAware Approximate
04:45PM 23.4806 -89.7878 178° South  Level FlightAware Approximate
04:46PM 23.4026 -89.7842 178° South  Level FlightAware Approximate
04:47PM 23.3248 -89.7780 175° South  Level FlightAware Approximate
04:48PM 23.2469 -89.7709 175° South  Level FlightAware Approximate
04:49PM 23.1690 -89.7647 177° South  Level FlightAware Approximate
04:50PM 23.0911 -89.7598 177° South  Level FlightAware Approximate
04:51PM 23.0131 -89.7550 177° South  Level FlightAware Approximate
04:52PM 22.9351 -89.7501 177° South  Level FlightAware Approximate
04:53PM 22.8572 -89.7452 177° South  Level FlightAware Approximate
04:54PM 22.7792 -89.7403 177° South  Level FlightAware Approximate
04:55PM 22.7012 -89.7355 177° South  Level FlightAware Approximate
04:56PM 22.6232 -89.7317 178° South  Level FlightAware Approximate
04:57PM 22.5452 -89.7287 178° South  Level FlightAware Approximate
04:58PM 22.4671 -89.7256 178° South  Level FlightAware Approximate
04:59PM 22.3891 -89.7226 178° South  Level FlightAware Approximate
05:00PM 22.3110 -89.7197 178° South  Level FlightAware Approximate
05:01PM 22.2330 -89.7167 177° South  Level FlightAware Approximate
05:02PM 22.1550 -89.7121 177° South  Level FlightAware Approximate
05:03PM 22.0770 -89.7075 177° South  Level FlightAware Approximate
05:04PM 21.9991 -89.7029 177° South  Level FlightAware Approximate
05:05PM 21.9211 -89.6985 177° South  Level FlightAware Approximate
05:06PM 21.8431 -89.6944 177° South  Level FlightAware Approximate
05:07PM 21.7651 -89.6903 177° South  Level FlightAware Approximate
05:08PM 21.6871 -89.6862 177° South  Level FlightAware Approximate
05:09PM 21.6091 -89.6819 177° South  Level FlightAware Approximate
05:10PM 21.5311 -89.6773 177° South  Level FlightAware Approximate
05:11PM 21.4531 -89.6727 177° South  Level FlightAware Approximate
05:12PM 21.3751 -89.6681 177° South  Level FlightAware Approximate
05:13PM 21.2971 -89.6646 178° South  Level FlightAware Approximate
05:14PM 21.2190 -89.6614 178° South  Level FlightAware Approximate
05:15PM 21.1410 -89.6583 178° South  Level FlightAware Approximate
05:16PM 21.0630 -89.6552 178° South  Level FlightAware Approximate
05:17PM 20.9849 -89.6521 178° South  Level FlightAware Approximate
05:18PM 20.9086 -89.6400 159° South  Level FlightAware Approximate
05:19PM 20.8356 -89.6104 159° South  Level FlightAware Approximate
05:20PM 20.7625 -89.5808 159° South  Level FlightAware Approximate
05:21PM 20.6895 -89.5512 159° South  Level FlightAware Approximate
05:22PM 20.6164 -89.5217 159° South  Level FlightAware Approximate
05:23PM 20.5434 -89.4922 159° South  Level FlightAware Approximate
05:24PM 20.4703 -89.4628 159° South  Level FlightAware Approximate
05:25PM 20.3972 -89.4333 159° South  Level FlightAware Approximate
05:26PM 20.3242 -89.4039 159° South  Level FlightAware Approximate
05:27PM 20.2511 -89.3746 159° South  Level FlightAware Approximate
05:28PM 20.1780 -89.3452 159° South  Level FlightAware Approximate
05:29PM 20.1049 -89.3159 159° South  Level FlightAware Approximate
05:30PM 20.0319 -89.2866 159° South  Level FlightAware Approximate
05:31PM 19.9588 -89.2573 159° South  Level FlightAware Approximate
05:32PM 19.8857 -89.2281 159° South  Level FlightAware Approximate
05:33PM 19.8126 -89.1989 159° South  Level FlightAware Approximate
05:34PM 19.7395 -89.1697 159° South  Level FlightAware Approximate
05:35PM 19.6663 -89.1405 159° South  Level FlightAware Approximate
05:36PM 19.5932 -89.1114 159° South  Level FlightAware Approximate
05:37PM 19.5201 -89.0823 159° South  Level FlightAware Approximate
05:38PM 19.4470 -89.0532 159° South  Level FlightAware Approximate
05:39PM 19.3738 -89.0242 159° South  Level FlightAware Approximate
05:40PM 19.3007 -88.9951 159° South  Level FlightAware Approximate
05:41PM 19.2276 -88.9661 159° South  Level FlightAware Approximate
05:42PM 19.1544 -88.9371 159° South  Level FlightAware Approximate
05:43PM 19.0813 -88.9082 159° South  Level FlightAware Approximate
05:44PM 19.0081 -88.8793 160° South  Level FlightAware Approximate
05:45PM 18.9350 -88.8504 160° South  Level FlightAware Approximate
05:46PM 18.8618 -88.8215 160° South  Level FlightAware Approximate
05:47PM 18.7886 -88.7927 160° South  Level FlightAware Approximate
05:48PM 18.7155 -88.7638 160° South  Level FlightAware Approximate
05:49PM 18.6423 -88.7350 160° South  Level FlightAware Approximate
05:50PM 18.5691 -88.7063 160° South  Level FlightAware Approximate
05:51PM 18.4959 -88.6775 160° South  Level FlightAware Approximate
05:52PM 18.4227 -88.6488 160° South  Level FlightAware Approximate
05:53PM 18.3492 -88.6211 161° South  Level FlightAware Approximate
05:54PM 18.2752 -88.5946 161° South  Level FlightAware Approximate
05:55PM 18.2013 -88.5682 161° South  Level FlightAware Approximate
05:56PM 18.1273 -88.5418 161° South  Level FlightAware Approximate
05:57PM 18.0534 -88.5154 161° South  Level FlightAware Approximate
05:58PM 17.9794 -88.4890 161° South  Level FlightAware Approximate
05:59PM 17.9057 -88.4620 158° South  Level FlightAware Approximate
06:00PM 17.8334 -88.4310 158° South  Level FlightAware Approximate
06:01PM 17.7620 -88.3977 155° Southeast  Level FlightAware Approximate
06:02PM 17.6915 -88.3624 155° Southeast  Level FlightAware Approximate
06:03PM 17.6191 -88.3321 160° South  Level FlightAware Approximate
06:04PM 17.5455 -88.3046 160° South  Level FlightAware Approximate
06:05PM 17.4693 -88.2872 169° South  Level FlightAware Approximate
06:06PM 17.3926 -88.2719 169° South  Level FlightAware Approximate
06:07PM 17.3156 -88.2581 171° South  Level FlightAware Approximate
06:08PM 17.2385 -88.2453 171° South  Level FlightAware Approximate
06:09PM 17.1614 -88.2324 171° South  Level FlightAware Approximate
06:10PM 17.0842 -88.2196 171° South  Level FlightAware Approximate
06:11PM 17.0078 -88.2033 168° South  Level FlightAware Approximate
06:12PM 16.9314 -88.1859 168° South  Level FlightAware Approximate
06:13PM 16.8551 -88.1685 168° South  Level FlightAware Approximate
06:14PM 16.7788 -88.1512 168° South  Level FlightAware Approximate
06:15PM 16.7025 -88.1339 168° South  Level FlightAware Approximate
06:16PM 16.6255 -88.1205 171° South  Level FlightAware Approximate
06:17PM 16.5484 -88.1072 171° South  Level FlightAware Approximate
06:18PM 16.4714 -88.0939 171° South  Level FlightAware Approximate
06:19PM 16.3943 -88.0806 171° South  Level FlightAware Approximate
06:20PM 16.3173 -88.0673 171° South  Level FlightAware Approximate
06:21PM 16.2402 -88.0540 171° South  Level FlightAware Approximate
06:22PM 16.1634 -88.0394 169° South  Level FlightAware Approximate
06:23PM 16.0867 -88.0240 169° South  Level FlightAware Approximate
06:24PM 16.0103 -88.0075 167° South  Level FlightAware Approximate
06:25PM 15.9340 -87.9899 167° South  Level FlightAware Approximate
06:26PM 15.8578 -87.9723 167° South  Level FlightAware Approximate
06:27PM 15.7812 -87.9562 169° South  Level FlightAware Approximate
06:28PM 15.7045 -87.9409 169° South  Level FlightAware Approximate
06:29PM 15.6279 -87.9256 169° South  Level FlightAware Approximate
06:30PM 15.5512 -87.9102 169° South  Level FlightAware Approximate
06:31PM 15.4740 -87.9000 180° South  Level FlightAware Approximate
06:32PM 15.4526 -87.9236 270° West  Level Estimated
06:33PM 15.4526 -87.9236 270° West  Level Estimated
06:34PM 15.4526 -87.9236 270° West  Level Estimated
06:35PM 15.4526 -87.9236 270° West  Level Estimated
06:36PM 15.4526 -87.9236 270° West  Level Estimated
06:37PM 15.4526 -87.9236 270° West  Level Estimated
06:38PM 15.4526 -87.9236 270° West  Level Estimated
06:39PM 15.4526 -87.9236 270° West  Level Estimated
06:40PM 15.4526 -87.9236 270° West  Level Estimated
06:41PM 15.4526 -87.9236 270° West  Level Estimated